createdAt,value
2022-10-18T00:01:11.555Z,70.61
2022-10-18T00:03:40.187Z,70.66
2022-10-18T00:06:09.956Z,70.46
2022-10-18T00:08:39.473Z,70.58
2022-10-18T00:11:09.281Z,70.29
2022-10-18T00:13:37.718Z,70.13
2022-10-18T00:16:12.408Z,70.42
2022-10-18T00:18:40.559Z,70.48
2022-10-18T00:21:12.598Z,69.89
2022-10-18T00:23:41.135Z,70.20
2022-10-18T00:26:14.290Z,69.83
2022-10-18T00:28:43.224Z,69.92
2022-10-18T00:31:14.923Z,69.99
2022-10-18T00:33:43.935Z,70.09
2022-10-18T00:36:13.651Z,69.73
2022-10-18T00:38:42.354Z,70.39
2022-10-18T00:41:15.897Z,69.99
2022-10-18T00:43:56.314Z,69.90
2022-10-18T00:46:25.453Z,70.07
2022-10-18T00:51:33.564Z,69.45
2022-10-18T00:54:01.988Z,69.82
2022-10-18T00:56:31.867Z,69.64
2022-10-18T00:59:00.020Z,69.29
2022-10-18T01:01:28.696Z,69.75
2022-10-18T01:03:58.501Z,69.17
2022-10-18T01:06:28.571Z,68.87
2022-10-18T01:09:20.839Z,68.99
2022-10-18T01:12:28.271Z,68.98
2022-10-18T01:15:11.446Z,68.82
2022-10-18T01:17:53.171Z,68.69
2022-10-18T01:21:07.835Z,69.03
2022-10-18T01:24:18.926Z,68.38
2022-10-18T01:27:28.350Z,68.65
2022-10-18T01:30:37.388Z,68.77
2022-10-18T01:33:13.728Z,68.90
2022-10-18T01:35:52.733Z,69.34
2022-10-18T01:38:23.492Z,68.85
2022-10-18T01:40:53.855Z,68.21
2022-10-18T01:43:24.135Z,68.18
2022-10-18T01:45:56.025Z,68.45
2022-10-18T01:48:24.772Z,68.48
2022-10-18T01:50:54.274Z,68.45
2022-10-18T01:53:26.298Z,68.70
2022-10-18T01:56:14.081Z,68.25
2022-10-18T01:58:53.769Z,68.30
2022-10-18T02:01:32.244Z,68.14
2022-10-18T02:04:11.142Z,68.01
2022-10-18T02:06:45.480Z,68.07
2022-10-18T02:09:20.005Z,68.13
2022-10-18T02:11:52.276Z,68.23
2022-10-18T02:14:23.275Z,67.70
2022-10-18T02:16:56.964Z,67.73
2022-10-18T02:19:30.752Z,67.73
2022-10-18T02:22:00.361Z,67.90
2022-10-18T02:24:35.578Z,67.79
2022-10-18T02:27:04.078Z,67.80
2022-10-18T02:29:32.844Z,68.10
2022-10-18T02:32:08.100Z,67.41
2022-10-18T02:34:41.599Z,67.53
2022-10-18T02:37:11.616Z,67.25
2022-10-18T02:39:46.813Z,67.11
2022-10-18T02:42:16.779Z,67.44
2022-10-18T02:44:44.911Z,67.15
2022-10-18T02:47:14.632Z,67.00
2022-10-18T02:49:42.668Z,66.87
2022-10-18T02:52:10.720Z,67.17
2022-10-18T02:54:38.974Z,67.19
2022-10-18T02:57:07.068Z,66.87
2022-10-18T02:59:35.806Z,66.68
2022-10-18T03:02:03.969Z,66.74
2022-10-18T03:04:33.390Z,66.36
2022-10-18T03:07:01.517Z,66.19
2022-10-18T03:09:29.607Z,66.30
2022-10-18T03:11:57.670Z,66.24
2022-10-18T03:14:26.078Z,66.03
2022-10-18T03:16:54.299Z,65.81
2022-10-18T03:19:22.420Z,65.67
2022-10-18T03:21:51.795Z,65.35
2022-10-18T03:24:19.898Z,65.18
2022-10-18T03:26:47.944Z,65.50
2022-10-18T03:29:16.033Z,65.20
2022-10-18T03:31:44.078Z,65.18
2022-10-18T03:34:12.167Z,64.98
2022-10-18T03:36:41.320Z,65.27
2022-10-18T03:39:12.263Z,65.08
2022-10-18T03:41:40.365Z,64.81
2022-10-18T03:44:08.584Z,65.17
2022-10-18T03:46:36.687Z,64.98
2022-10-18T03:49:05.188Z,65.78
2022-10-18T03:51:33.244Z,65.74
2022-10-18T03:54:02.313Z,65.53
2022-10-18T03:56:31.717Z,65.89
2022-10-18T03:58:59.839Z,66.05
2022-10-18T04:01:28.024Z,65.95
2022-10-18T04:03:56.151Z,66.03
2022-10-18T04:06:24.208Z,66.07
2022-10-18T04:08:52.323Z,66.78
2022-10-18T04:11:20.545Z,66.84
2022-10-18T04:13:50.355Z,67.27
2022-10-18T04:16:18.512Z,66.96
2022-10-18T04:18:46.600Z,66.87
2022-10-18T04:21:15.094Z,67.24
2022-10-18T04:23:43.186Z,67.44
2022-10-18T04:26:11.306Z,67.45
2022-10-18T04:28:40.251Z,67.46
2022-10-18T04:31:10.307Z,67.29
2022-10-18T04:33:38.750Z,67.10
2022-10-18T04:36:07.434Z,67.10
2022-10-18T04:38:35.591Z,67.29
2022-10-18T04:41:03.762Z,67.28
2022-10-18T04:43:32.011Z,67.63
2022-10-18T04:46:00.381Z,67.65
2022-10-18T04:48:29.862Z,67.07
2022-10-18T04:50:58.002Z,67.13
2022-10-18T04:53:26.238Z,67.12
2022-10-18T04:55:54.448Z,67.27
2022-10-18T04:58:22.600Z,66.86
2022-10-18T05:00:51.240Z,66.64
2022-10-18T05:03:19.877Z,66.31
2022-10-18T05:06:01.272Z,66.10
2022-10-18T05:08:30.242Z,66.72
2022-10-18T05:10:58.403Z,71.32
2022-10-18T05:13:26.809Z,68.33
2022-10-18T05:15:54.885Z,67.30
2022-10-18T05:18:23.126Z,67.10
2022-10-18T05:20:52.545Z,65.94
2022-10-18T05:23:20.598Z,67.08
2022-10-18T05:25:52.120Z,67.22
2022-10-18T05:31:11.268Z,66.54
2022-10-18T05:33:39.637Z,67.88
2022-10-18T05:36:09.866Z,66.28
2022-10-18T05:38:42.661Z,66.73
2022-10-18T05:41:11.353Z,65.51
2022-10-18T05:43:40.115Z,65.83
2022-10-18T05:46:13.616Z,66.65
2022-10-18T05:48:43.884Z,67.76
2022-10-18T05:51:13.326Z,66.45
2022-10-18T05:53:41.431Z,66.66
2022-10-18T05:56:11.872Z,67.82
2022-10-18T05:58:40.930Z,66.32
2022-10-18T06:01:10.988Z,65.40
2022-10-18T06:03:39.229Z,64.52
2022-10-18T06:06:10.111Z,64.51
2022-10-18T06:08:41.573Z,65.29
2022-10-18T06:11:11.020Z,65.53
2022-10-18T06:13:42.718Z,66.32
2022-10-18T06:16:12.382Z,66.93
2022-10-18T06:18:41.212Z,66.66
2022-10-18T06:21:10.714Z,67.19
2022-10-18T06:23:40.198Z,67.54
2022-10-18T06:26:11.844Z,67.41
2022-10-18T06:28:40.217Z,67.62
2022-10-18T06:31:08.368Z,67.93
2022-10-18T06:33:37.915Z,68.00
2022-10-18T06:36:11.355Z,67.92
2022-10-18T06:38:40.908Z,68.33
2022-10-18T06:41:09.479Z,68.18
2022-10-18T06:43:37.819Z,68.15
2022-10-18T06:46:08.649Z,68.70
2022-10-18T06:48:37.523Z,69.20
2022-10-18T06:51:08.160Z,69.24
2022-10-18T06:53:43.941Z,69.19
2022-10-18T06:56:18.047Z,69.56
2022-10-18T06:58:46.214Z,69.76
2022-10-18T07:01:16.629Z,70.06
2022-10-18T07:03:45.671Z,70.02
2022-10-18T07:06:18.357Z,69.29
2022-10-18T07:08:48.244Z,69.70
2022-10-18T07:11:21.825Z,69.01
2022-10-18T07:13:49.978Z,69.19
2022-10-18T07:16:19.977Z,68.65
2022-10-18T07:18:51.426Z,68.63
2022-10-18T07:21:22.707Z,68.51
2022-10-18T07:23:52.176Z,68.64
2022-10-18T07:26:24.227Z,68.22
2022-10-18T07:28:55.797Z,68.25
2022-10-18T07:31:24.667Z,67.89
2022-10-18T07:33:53.503Z,67.71
2022-10-18T07:36:22.479Z,68.33
2022-10-18T07:38:51.910Z,68.42
2022-10-18T07:41:22.159Z,68.10
2022-10-18T07:43:52.093Z,67.68
2022-10-18T07:46:22.243Z,67.96
2022-10-18T07:48:51.633Z,68.09
2022-10-18T07:51:21.109Z,68.46
2022-10-18T07:53:49.672Z,68.03
2022-10-18T07:56:22.152Z,68.23
2022-10-18T07:58:52.690Z,67.97
2022-10-18T08:01:24.297Z,68.25
2022-10-18T08:03:53.399Z,68.35
2022-10-18T08:06:23.693Z,67.87
2022-10-18T08:08:52.187Z,67.87
2022-10-18T08:11:23.893Z,68.05
2022-10-18T08:13:53.398Z,68.08
2022-10-18T08:16:24.519Z,67.86
2022-10-18T08:18:52.870Z,68.25
2022-10-18T08:21:22.321Z,67.88
2022-10-18T08:23:50.974Z,68.02
2022-10-18T08:26:23.786Z,67.78
2022-10-18T08:29:10.291Z,67.82
2022-10-18T08:31:40.476Z,67.76
2022-10-18T08:34:08.609Z,67.68
2022-10-18T08:36:36.826Z,67.67
2022-10-18T08:39:05.247Z,67.88
2022-10-18T08:42:02.392Z,67.74
2022-10-18T08:44:33.142Z,68.10
2022-10-18T08:47:06.651Z,68.65
2022-10-18T08:49:47.174Z,68.72
2022-10-18T08:52:25.153Z,68.51
2022-10-18T08:55:02.541Z,67.37
2022-10-18T08:57:32.968Z,66.37
2022-10-18T09:00:02.611Z,66.60
2022-10-18T09:02:50.581Z,66.31
2022-10-18T09:05:29.084Z,66.29
2022-10-18T09:08:35.048Z,65.78
2022-10-18T09:11:22.013Z,65.16
2022-10-18T09:14:23.526Z,63.82
2022-10-18T09:17:04.979Z,64.18
2022-10-18T09:19:58.182Z,63.07
2022-10-18T09:23:08.662Z,63.51
2022-10-18T09:25:45.363Z,64.09
2022-10-18T09:28:23.291Z,64.90
2022-10-18T09:31:01.330Z,63.93
2022-10-18T09:33:49.209Z,62.57
2022-10-18T09:36:21.903Z,62.96
2022-10-18T09:38:56.165Z,63.22
2022-10-18T09:41:31.768Z,63.85
2022-10-18T09:44:06.785Z,62.58
2022-10-18T09:46:41.974Z,62.09
2022-10-18T09:49:19.345Z,61.68
2022-10-18T09:51:49.535Z,62.02
2022-10-18T09:54:27.040Z,61.77
2022-10-18T09:57:04.948Z,61.37
2022-10-18T09:59:39.414Z,62.64
2022-10-18T10:02:15.701Z,62.20
2022-10-18T10:04:43.976Z,62.04
2022-10-18T10:07:17.588Z,62.53
2022-10-18T10:09:48.294Z,61.40
2022-10-18T10:12:32.452Z,60.92
2022-10-18T10:15:13.345Z,60.71
2022-10-18T10:17:43.949Z,60.89
2022-10-18T10:20:21.283Z,59.41
2022-10-18T10:22:52.793Z,60.44
2022-10-18T10:25:26.853Z,60.25
2022-10-18T10:27:55.301Z,60.84
2022-10-18T10:30:27.406Z,60.84
2022-10-18T10:32:58.338Z,59.35
2022-10-18T10:35:42.302Z,59.90
2022-10-18T10:38:26.006Z,60.50
2022-10-18T10:40:54.909Z,59.38
2022-10-18T10:43:42.552Z,59.71
2022-10-18T10:46:13.948Z,61.31
2022-10-18T10:49:15.343Z,60.94
2022-10-18T10:51:45.181Z,59.95
2022-10-18T10:54:18.387Z,59.60
2022-10-18T10:56:59.686Z,59.42
2022-10-18T10:59:33.020Z,59.29
2022-10-18T11:02:21.940Z,59.04
2022-10-18T11:04:53.162Z,58.47
2022-10-18T11:07:28.961Z,59.26
2022-10-18T11:10:04.491Z,59.68
2022-10-18T11:12:35.619Z,58.55
2022-10-18T11:15:20.763Z,58.83
2022-10-18T11:18:01.569Z,58.65
2022-10-18T11:20:35.885Z,58.24
2022-10-18T11:23:08.014Z,57.72
2022-10-18T11:26:04.054Z,56.84
2022-10-18T11:29:08.701Z,57.62
2022-10-18T11:31:46.033Z,57.46
2022-10-18T11:34:42.733Z,56.34
2022-10-18T11:37:34.491Z,57.16
2022-10-18T11:40:17.064Z,57.26
2022-10-18T11:42:56.101Z,56.78
2022-10-18T11:45:35.695Z,56.94
2022-10-18T11:48:18.601Z,56.91
2022-10-18T11:50:55.077Z,56.81
2022-10-18T11:53:32.841Z,57.62
2022-10-18T11:56:12.325Z,57.42
2022-10-18T11:59:11.001Z,57.04
2022-10-18T12:01:46.306Z,56.97
2022-10-18T12:04:19.813Z,56.88
2022-10-18T12:06:52.665Z,56.83
2022-10-18T12:09:29.813Z,56.19
2022-10-18T12:12:03.897Z,57.47
2022-10-18T12:14:38.879Z,58.10
2022-10-18T12:20:12.410Z,58.51
2022-10-18T12:22:46.764Z,59.26
2022-10-18T12:25:19.153Z,60.18
2022-10-18T12:27:57.122Z,58.53
2022-10-18T12:30:35.613Z,59.16
2022-10-18T12:33:27.245Z,59.53
2022-10-18T12:36:13.517Z,60.01
2022-10-18T12:38:45.013Z,59.98
2022-10-18T12:41:25.585Z,58.85
2022-10-18T12:43:59.779Z,59.87
2022-10-18T12:46:45.563Z,59.30
2022-10-18T12:49:15.856Z,58.58
2022-10-18T12:51:54.059Z,58.62
2022-10-18T12:54:27.899Z,59.12
2022-10-18T12:56:57.929Z,58.59
2022-10-18T12:59:50.861Z,58.03
2022-10-18T13:02:32.312Z,58.88
2022-10-18T13:05:02.507Z,58.18
2022-10-18T13:07:44.803Z,58.06
2022-10-18T13:10:40.564Z,58.03
2022-10-18T13:13:45.924Z,58.42
2022-10-18T13:16:31.415Z,58.17
2022-10-18T13:19:12.131Z,57.98
2022-10-18T13:21:52.280Z,58.45
2022-10-18T13:24:31.489Z,58.49
2022-10-18T13:27:42.556Z,58.22
2022-10-18T13:30:44.441Z,58.23
2022-10-18T13:33:32.634Z,58.77
2022-10-18T13:36:22.992Z,58.90
2022-10-18T13:39:05.849Z,58.38
2022-10-18T13:42:32.684Z,58.37
2022-10-18T13:45:55.538Z,58.04
2022-10-18T13:48:50.865Z,57.46
2022-10-18T13:51:56.834Z,57.85
2022-10-18T13:54:59.486Z,58.35
2022-10-18T13:57:46.675Z,58.44
2022-10-18T14:00:35.254Z,58.20
2022-10-18T14:03:56.906Z,58.00
2022-10-18T14:06:29.141Z,57.85
2022-10-18T14:09:14.023Z,58.12
2022-10-18T14:11:58.803Z,58.88
2022-10-18T14:14:38.138Z,58.98
2022-10-18T14:17:21.326Z,59.18
2022-10-18T14:19:57.105Z,59.80
2022-10-18T14:22:31.715Z,59.87
2022-10-18T14:25:00.636Z,60.13
2022-10-18T14:27:32.504Z,60.33
2022-10-18T14:30:17.115Z,61.37
2022-10-18T14:32:47.354Z,61.65
2022-10-18T14:35:32.074Z,61.35
2022-10-18T14:38:01.425Z,61.10
2022-10-18T14:40:33.863Z,60.92
2022-10-18T14:43:08.118Z,60.99
2022-10-18T14:45:37.538Z,61.38
2022-10-18T14:48:16.461Z,61.35
2022-10-18T14:50:48.292Z,61.91
2022-10-18T14:53:22.025Z,61.51
2022-10-18T14:56:00.699Z,62.45
2022-10-18T14:58:29.142Z,62.92
2022-10-18T15:00:59.990Z,63.40
2022-10-18T15:03:29.140Z,62.96
2022-10-18T15:06:00.398Z,62.71
2022-10-18T15:08:35.598Z,63.04
2022-10-18T15:11:04.160Z,62.87
2022-10-18T15:13:33.635Z,63.38
2022-10-18T15:16:03.586Z,63.21
2022-10-18T15:18:32.292Z,63.30
2022-10-18T15:21:23.249Z,64.08
2022-10-18T15:23:52.467Z,64.01
2022-10-18T15:26:26.582Z,63.95
2022-10-18T15:29:00.424Z,63.69
2022-10-18T15:31:36.418Z,64.02
2022-10-18T15:34:16.803Z,64.34
2022-10-18T15:36:45.213Z,64.72
2022-10-18T15:39:19.051Z,64.53
2022-10-18T15:41:50.672Z,65.04
2022-10-18T15:44:28.386Z,64.39
2022-10-18T15:47:20.552Z,64.34
2022-10-18T15:49:56.464Z,65.06
2022-10-18T15:52:42.575Z,64.70
2022-10-18T15:55:58.617Z,64.95
2022-10-18T15:58:29.606Z,65.03
2022-10-18T16:01:01.000Z,65.13
2022-10-18T16:03:34.320Z,65.22
2022-10-18T16:06:07.692Z,65.24
2022-10-18T16:08:41.748Z,65.44
2022-10-18T16:11:15.724Z,65.61
2022-10-18T16:13:45.059Z,65.89
2022-10-18T16:16:16.968Z,65.90
2022-10-18T16:18:46.587Z,66.14
2022-10-18T16:21:20.588Z,66.13
2022-10-18T16:23:49.038Z,66.22
2022-10-18T16:26:18.634Z,66.37
2022-10-18T16:28:47.547Z,66.49
2022-10-18T16:31:19.407Z,66.85
2022-10-18T16:33:49.626Z,66.92
2022-10-18T16:36:19.651Z,67.12
2022-10-18T16:38:48.908Z,67.41
2022-10-18T16:41:18.008Z,67.43
2022-10-18T16:43:48.795Z,67.36
2022-10-18T16:46:20.095Z,67.29
2022-10-18T16:48:51.731Z,67.70
2022-10-18T16:51:19.858Z,67.78
2022-10-18T16:53:48.625Z,67.43
2022-10-18T16:56:19.707Z,67.53
2022-10-18T16:58:51.357Z,67.64
2022-10-18T17:01:22.807Z,67.99
2022-10-18T17:03:52.992Z,67.78
2022-10-18T17:06:25.072Z,67.84
2022-10-18T17:08:54.330Z,68.17
2022-10-18T17:11:25.122Z,67.76
2022-10-18T17:13:53.641Z,66.97
2022-10-18T17:19:04.847Z,67.91
2022-10-18T17:21:34.141Z,68.12
2022-10-18T17:24:03.233Z,68.32
2022-10-18T17:26:31.908Z,68.24
2022-10-18T17:29:03.029Z,68.13
2022-10-18T17:31:32.108Z,68.46
2022-10-18T17:34:01.887Z,68.50
2022-10-18T17:36:30.894Z,69.33
2022-10-18T17:39:03.465Z,69.45
2022-10-18T17:41:32.023Z,69.34
2022-10-18T17:44:00.135Z,69.44
2022-10-18T17:46:53.966Z,69.72
2022-10-18T17:49:23.545Z,69.18
2022-10-18T17:51:57.111Z,69.14
2022-10-18T17:54:25.333Z,69.37
2022-10-18T17:56:53.892Z,69.10
2022-10-18T17:59:22.685Z,69.43
2022-10-18T18:01:50.920Z,69.46
2022-10-18T18:04:19.032Z,69.56
2022-10-18T18:06:49.042Z,69.72
2022-10-18T18:09:17.978Z,70.01
2022-10-18T18:11:48.504Z,70.09
2022-10-18T18:14:17.232Z,69.71
2022-10-18T18:16:47.619Z,69.47
2022-10-18T18:19:17.585Z,69.70
2022-10-18T18:21:45.875Z,69.70
2022-10-18T18:24:17.137Z,69.78
2022-10-18T18:26:45.165Z,69.96
2022-10-18T18:29:13.980Z,69.59
2022-10-18T18:31:43.971Z,69.72
2022-10-18T18:34:12.448Z,70.27
2022-10-18T18:36:40.785Z,70.21
2022-10-18T18:39:09.360Z,70.49
2022-10-18T18:41:38.866Z,70.04
2022-10-18T18:44:07.388Z,69.85
2022-10-18T18:46:38.590Z,70.38
2022-10-18T18:49:08.224Z,70.45
2022-10-18T18:51:38.011Z,70.86
2022-10-18T18:54:06.615Z,70.82
2022-10-18T18:56:34.851Z,70.95
2022-10-18T18:59:05.364Z,70.98
2022-10-18T19:01:35.968Z,71.30
2022-10-18T19:04:06.182Z,71.04
2022-10-18T19:06:38.188Z,70.92
2022-10-18T19:09:12.100Z,70.62
2022-10-18T19:11:40.998Z,70.63
2022-10-18T19:14:10.513Z,70.95
2022-10-18T19:16:40.842Z,70.45
2022-10-18T19:19:12.966Z,70.28
2022-10-18T19:21:44.342Z,70.44
2022-10-18T19:24:12.826Z,70.80
2022-10-18T19:26:45.351Z,70.71
2022-10-18T19:29:17.852Z,71.04
2022-10-18T19:31:46.774Z,71.18
2022-10-18T19:34:16.729Z,70.38
2022-10-18T19:36:46.857Z,69.78
2022-10-18T19:39:19.047Z,69.65
2022-10-18T19:41:47.322Z,69.52
2022-10-18T19:44:17.804Z,69.54
2022-10-18T19:46:46.276Z,69.69
2022-10-18T19:49:14.926Z,69.25
2022-10-18T19:51:43.746Z,69.48
2022-10-18T19:54:13.373Z,69.37
2022-10-18T19:56:42.441Z,69.65
2022-10-18T19:59:13.018Z,69.38
2022-10-18T20:01:43.074Z,69.42
2022-10-18T20:04:13.193Z,69.74
2022-10-18T20:06:42.515Z,70.00
2022-10-18T20:09:14.795Z,69.81
2022-10-18T20:11:46.007Z,69.98
2022-10-18T20:14:14.054Z,69.73
2022-10-18T20:16:43.550Z,70.37
2022-10-18T20:19:11.889Z,70.91
2022-10-18T20:21:40.243Z,70.88
2022-10-18T20:24:10.082Z,70.65
2022-10-18T20:26:39.506Z,70.56
2022-10-18T20:29:08.229Z,70.26
2022-10-18T20:31:39.241Z,69.92
2022-10-18T20:34:12.646Z,70.27
2022-10-18T20:36:41.132Z,69.83
2022-10-18T20:39:09.791Z,70.26
2022-10-18T20:41:41.314Z,69.74
2022-10-18T20:44:14.741Z,70.23
2022-10-18T20:46:44.344Z,70.21
2022-10-18T20:49:17.463Z,69.86
2022-10-18T20:51:45.898Z,70.27
2022-10-18T20:54:14.220Z,70.34
2022-10-18T20:56:42.303Z,69.83
2022-10-18T20:59:11.465Z,70.53
2022-10-18T21:01:40.754Z,70.46
2022-10-18T21:04:11.480Z,71.22
2022-10-18T21:06:44.122Z,71.50
2022-10-18T21:09:14.776Z,71.46
2022-10-18T21:11:46.184Z,70.92
2022-10-18T21:14:17.170Z,71.61
2022-10-18T21:16:45.792Z,71.83
2022-10-18T21:19:17.665Z,71.96
2022-10-18T21:21:49.577Z,71.32
2022-10-18T21:24:19.338Z,70.65
2022-10-18T21:26:47.825Z,70.48
2022-10-18T21:29:21.659Z,70.56
2022-10-18T21:31:50.682Z,70.17
2022-10-18T21:34:19.017Z,70.41
2022-10-18T21:36:49.387Z,70.32
2022-10-18T21:39:20.114Z,71.03
2022-10-18T21:41:48.688Z,71.42
2022-10-18T21:44:17.860Z,70.32
2022-10-18T21:46:46.769Z,70.27
2022-10-18T21:49:16.292Z,69.79
2022-10-18T21:51:45.456Z,69.83
2022-10-18T21:54:17.228Z,70.18
2022-10-18T21:56:45.613Z,70.30
2022-10-18T21:59:14.354Z,70.44
2022-10-18T22:01:44.095Z,70.55
2022-10-18T22:04:21.351Z,70.55
2022-10-18T22:06:49.989Z,70.92
2022-10-18T22:09:19.823Z,70.70
2022-10-18T22:11:51.705Z,70.53
2022-10-18T22:14:20.045Z,70.19
2022-10-18T22:16:48.182Z,70.07
2022-10-18T22:19:16.786Z,70.44
2022-10-18T22:21:44.840Z,70.23
2022-10-18T22:24:12.889Z,70.00
2022-10-18T22:26:44.553Z,69.42
2022-10-18T22:29:16.011Z,70.04
2022-10-18T22:31:46.657Z,69.96
2022-10-18T22:34:18.801Z,69.61
2022-10-18T22:36:47.249Z,69.53
2022-10-18T22:39:16.821Z,69.94
2022-10-18T22:41:46.523Z,69.29
2022-10-18T22:44:15.956Z,69.32
2022-10-18T22:46:44.253Z,69.86
2022-10-18T22:49:12.844Z,69.96
2022-10-18T22:51:41.604Z,69.59
2022-10-18T22:54:10.109Z,69.45
2022-10-18T22:56:38.223Z,70.18
2022-10-18T22:59:07.628Z,71.14
2022-10-18T23:01:36.021Z,70.76
2022-10-18T23:04:04.583Z,70.07
2022-10-18T23:06:35.267Z,70.08
2022-10-18T23:09:06.936Z,70.30
2022-10-18T23:11:36.743Z,70.94
2022-10-18T23:14:07.318Z,70.63
2022-10-18T23:16:35.962Z,69.90
2022-10-18T23:19:05.154Z,69.52
2022-10-18T23:21:35.583Z,69.19
2022-10-18T23:24:03.702Z,69.62
2022-10-18T23:26:32.239Z,69.84
2022-10-18T23:29:00.474Z,70.00
2022-10-18T23:31:33.199Z,69.48
2022-10-18T23:34:04.832Z,69.38
2022-10-18T23:36:34.551Z,69.37
2022-10-18T23:39:03.477Z,69.46
2022-10-18T23:41:31.561Z,69.81
2022-10-18T23:43:59.716Z,69.81
2022-10-18T23:46:29.233Z,70.01
2022-10-18T23:48:57.317Z,69.76
2022-10-18T23:51:25.399Z,70.02
2022-10-18T23:53:53.479Z,70.28
2022-10-18T23:56:21.587Z,70.63
2022-10-18T23:58:49.706Z,70.98
